sensor_id;sensor_type;location;lat;lon;timestamp;P1;durP1;ratioP1;P2;durP2;ratioP2
34521;SDS011;25561;48.888;8.736;2022-08-19T05:30:37;35.90;;;25.55;;
34521;SDS011;25561;48.888;8.736;2022-08-19T05:33:47;40.58;;;25.42;;
34521;SDS011;25561;48.888;8.736;2022-08-19T05:36:51;41.92;;;26.50;;
34521;SDS011;25561;48.888;8.736;2022-08-19T05:39:58;39.30;;;25.95;;
34521;SDS011;25561;48.888;8.736;2022-08-19T05:42:59;36.33;;;25.35;;
34521;SDS011;25561;48.888;8.736;2022-08-19T05:46:01;36.70;;;25.10;;
34521;SDS011;25561;48.888;8.736;2022-08-19T05:49:05;35.47;;;24.05;;
34521;SDS011;25561;48.888;8.736;2022-08-19T05:52:09;37.95;;;24.60;;
34521;SDS011;25561;48.888;8.736;2022-08-19T05:55:18;40.50;;;26.25;;
34521;SDS011;25561;48.888;8.736;2022-08-19T05:58:21;31.35;;;22.70;;
34521;SDS011;25561;48.888;8.736;2022-08-19T06:01:25;34.28;;;24.17;;
34521;SDS011;25561;48.888;8.736;2022-08-19T06:04:27;37.35;;;24.15;;
34521;SDS011;25561;48.888;8.736;2022-08-19T06:07:29;37.58;;;26.58;;
34521;SDS011;25561;48.888;8.736;2022-08-19T06:10:31;33.88;;;23.67;;
34521;SDS011;25561;48.888;8.736;2022-08-19T06:50:19;49.35;;;22.55;;
34521;SDS011;25561;48.888;8.736;2022-08-19T06:53:25;28.00;;;20.15;;
34521;SDS011;25561;48.888;8.736;2022-08-19T06:56:30;32.42;;;22.67;;
34521;SDS011;25561;48.888;8.736;2022-08-19T06:59:35;33.13;;;21.45;;
34521;SDS011;25561;48.888;8.736;2022-08-19T07:02:38;29.70;;;20.42;;
34521;SDS011;25561;48.888;8.736;2022-08-19T07:05:41;31.25;;;20.58;;
34521;SDS011;25561;48.888;8.736;2022-08-19T07:08:46;28.08;;;20.25;;
34521;SDS011;25561;48.888;8.736;2022-08-19T07:11:49;27.27;;;20.10;;
34521;SDS011;25561;48.888;8.736;2022-08-19T07:14:53;32.92;;;21.13;;
34521;SDS011;25561;48.888;8.736;2022-08-19T07:17:55;29.40;;;20.90;;
34521;SDS011;25561;48.888;8.736;2022-08-19T07:21:28;33.72;;;22.52;;
34521;SDS011;25561;48.888;8.736;2022-08-19T07:24:23;31.88;;;22.10;;
34521;SDS011;25561;48.888;8.736;2022-08-19T07:27:30;29.23;;;19.55;;
34521;SDS011;25561;48.888;8.736;2022-08-19T07:30:35;36.22;;;22.33;;
34521;SDS011;25561;48.888;8.736;2022-08-19T07:33:38;32.08;;;22.52;;
34521;SDS011;25561;48.888;8.736;2022-08-19T07:36:43;31.90;;;21.23;;
34521;SDS011;25561;48.888;8.736;2022-08-19T07:39:46;28.20;;;19.25;;
34521;SDS011;25561;48.888;8.736;2022-08-19T07:42:48;27.98;;;20.77;;
34521;SDS011;25561;48.888;8.736;2022-08-19T07:45:51;34.10;;;21.83;;
34521;SDS011;25561;48.888;8.736;2022-08-19T07:48:57;27.90;;;20.85;;
34521;SDS011;25561;48.888;8.736;2022-08-19T07:52:01;33.67;;;22.27;;
34521;SDS011;25561;48.888;8.736;2022-08-19T07:55:06;29.02;;;20.10;;
34521;SDS011;25561;48.888;8.736;2022-08-19T07:58:30;29.38;;;19.55;;
34521;SDS011;25561;48.888;8.736;2022-08-19T08:01:35;31.83;;;18.83;;
34521;SDS011;25561;48.888;8.736;2022-08-19T08:04:42;26.23;;;18.45;;
34521;SDS011;25561;48.888;8.736;2022-08-19T08:08:03;36.20;;;19.83;;
34521;SDS011;25561;48.888;8.736;2022-08-19T08:11:27;26.58;;;18.60;;
34521;SDS011;25561;48.888;8.736;2022-08-19T08:14:31;24.70;;;18.17;;
34521;SDS011;25561;48.888;8.736;2022-08-19T08:17:36;25.73;;;17.33;;
34521;SDS011;25561;48.888;8.736;2022-08-19T08:20:51;28.10;;;17.83;;
34521;SDS011;25561;48.888;8.736;2022-08-19T08:23:53;28.13;;;16.88;;
34521;SDS011;25561;48.888;8.736;2022-08-19T08:26:57;23.85;;;17.05;;
34521;SDS011;25561;48.888;8.736;2022-08-19T08:30:00;23.90;;;15.20;;
34521;SDS011;25561;48.888;8.736;2022-08-19T08:33:03;19.70;;;14.80;;
34521;SDS011;25561;48.888;8.736;2022-08-19T08:36:05;24.67;;;15.68;;
34521;SDS011;25561;48.888;8.736;2022-08-19T08:39:08;22.75;;;16.45;;
34521;SDS011;25561;48.888;8.736;2022-08-19T08:42:48;23.08;;;14.73;;
34521;SDS011;25561;48.888;8.736;2022-08-19T08:45:38;21.20;;;15.07;;
34521;SDS011;25561;48.888;8.736;2022-08-19T08:45:42;21.20;;;15.07;;
34521;SDS011;25561;48.888;8.736;2022-08-19T08:48:56;22.40;;;16.75;;
34521;SDS011;25561;48.888;8.736;2022-08-19T08:52:36;20.90;;;14.68;;
34521;SDS011;25561;48.888;8.736;2022-08-19T08:55:52;18.25;;;13.90;;
34521;SDS011;25561;48.888;8.736;2022-08-19T09:02:03;22.48;;;14.20;;
34521;SDS011;25561;48.888;8.736;2022-08-19T09:05:05;24.50;;;16.00;;
34521;SDS011;25561;48.888;8.736;2022-08-19T09:08:10;17.95;;;13.25;;
34521;SDS011;25561;48.888;8.736;2022-08-19T09:11:24;18.48;;;13.55;;
34521;SDS011;25561;48.888;8.736;2022-08-19T09:18:07;25.48;;;14.75;;
34521;SDS011;25561;48.888;8.736;2022-08-19T09:21:15;20.90;;;12.85;;
34521;SDS011;25561;48.888;8.736;2022-08-19T09:24:17;19.30;;;11.48;;
34521;SDS011;25561;48.888;8.736;2022-08-19T09:27:19;19.85;;;12.32;;
34521;SDS011;25561;48.888;8.736;2022-08-19T09:30:43;23.67;;;12.50;;
34521;SDS011;25561;48.888;8.736;2022-08-19T09:33:46;18.92;;;12.00;;
34521;SDS011;25561;48.888;8.736;2022-08-19T09:36:49;16.98;;;10.65;;
34521;SDS011;25561;48.888;8.736;2022-08-19T09:39:55;20.77;;;10.30;;
34521;SDS011;25561;48.888;8.736;2022-08-19T09:42:57;13.30;;;9.60;;
34521;SDS011;25561;48.888;8.736;2022-08-19T09:46:10;22.40;;;12.75;;
34521;SDS011;25561;48.888;8.736;2022-08-19T09:49:19;16.13;;;9.10;;
34521;SDS011;25561;48.888;8.736;2022-08-19T09:52:24;15.60;;;10.10;;
34521;SDS011;25561;48.888;8.736;2022-08-19T09:55:33;12.60;;;8.80;;
34521;SDS011;25561;48.888;8.736;2022-08-19T09:58:35;12.20;;;10.32;;
34521;SDS011;25561;48.888;8.736;2022-08-19T10:01:37;17.40;;;9.10;;
34521;SDS011;25561;48.888;8.736;2022-08-19T10:04:39;11.55;;;8.85;;
34521;SDS011;25561;48.888;8.736;2022-08-19T10:08:01;13.10;;;7.43;;
34521;SDS011;25561;48.888;8.736;2022-08-19T10:11:04;12.20;;;7.97;;
34521;SDS011;25561;48.888;8.736;2022-08-19T10:14:27;17.17;;;9.43;;
34521;SDS011;25561;48.888;8.736;2022-08-19T10:17:29;13.50;;;7.53;;
34521;SDS011;25561;48.888;8.736;2022-08-19T10:20:33;13.40;;;8.15;;
34521;SDS011;25561;48.888;8.736;2022-08-19T10:23:39;11.48;;;8.20;;
34521;SDS011;25561;48.888;8.736;2022-08-19T10:26:45;12.27;;;7.75;;
34521;SDS011;25561;48.888;8.736;2022-08-19T10:29:58;12.63;;;7.40;;
34521;SDS011;25561;48.888;8.736;2022-08-19T10:33:01;14.90;;;8.65;;
34521;SDS011;25561;48.888;8.736;2022-08-19T10:36:13;9.90;;;7.30;;
34521;SDS011;25561;48.888;8.736;2022-08-19T10:39:19;9.52;;;6.40;;
34521;SDS011;25561;48.888;8.736;2022-08-19T10:42:23;14.02;;;7.50;;
34521;SDS011;25561;48.888;8.736;2022-08-19T10:45:25;15.18;;;8.68;;
34521;SDS011;25561;48.888;8.736;2022-08-19T10:48:28;12.27;;;7.38;;
34521;SDS011;25561;48.888;8.736;2022-08-19T10:51:30;9.18;;;6.88;;
34521;SDS011;25561;48.888;8.736;2022-08-19T10:54:53;11.55;;;6.57;;
34521;SDS011;25561;48.888;8.736;2022-08-19T10:58:16;13.07;;;8.38;;
34521;SDS011;25561;48.888;8.736;2022-08-19T11:01:25;9.10;;;6.55;;
34521;SDS011;25561;48.888;8.736;2022-08-19T11:04:27;9.77;;;6.68;;
34521;SDS011;25561;48.888;8.736;2022-08-19T11:07:29;8.52;;;6.78;;
34521;SDS011;25561;48.888;8.736;2022-08-19T11:10:31;7.47;;;6.50;;
34521;SDS011;25561;48.888;8.736;2022-08-19T11:13:34;9.35;;;5.90;;
34521;SDS011;25561;48.888;8.736;2022-08-19T11:16:38;15.55;;;7.63;;
34521;SDS011;25561;48.888;8.736;2022-08-19T11:19:41;11.60;;;6.22;;
34521;SDS011;25561;48.888;8.736;2022-08-19T11:22:43;11.25;;;6.20;;
34521;SDS011;25561;48.888;8.736;2022-08-19T11:25:47;11.15;;;7.05;;
34521;SDS011;25561;48.888;8.736;2022-08-19T11:28:50;12.07;;;6.55;;
34521;SDS011;25561;48.888;8.736;2022-08-19T11:34:57;7.97;;;5.50;;
34521;SDS011;25561;48.888;8.736;2022-08-19T11:37:58;7.53;;;5.20;;
34521;SDS011;25561;48.888;8.736;2022-08-19T11:41:03;14.25;;;7.03;;
34521;SDS011;25561;48.888;8.736;2022-08-19T11:44:08;10.38;;;6.15;;
34521;SDS011;25561;48.888;8.736;2022-08-19T11:47:11;9.80;;;5.38;;
34521;SDS011;25561;48.888;8.736;2022-08-19T11:50:13;8.40;;;5.68;;
34521;SDS011;25561;48.888;8.736;2022-08-19T11:53:16;9.95;;;6.05;;
34521;SDS011;25561;48.888;8.736;2022-08-19T11:56:20;9.60;;;6.67;;
34521;SDS011;25561;48.888;8.736;2022-08-19T11:59:22;9.43;;;6.10;;
34521;SDS011;25561;48.888;8.736;2022-08-19T12:02:25;10.63;;;5.45;;
34521;SDS011;25561;48.888;8.736;2022-08-19T12:05:26;8.48;;;5.80;;
34521;SDS011;25561;48.888;8.736;2022-08-19T12:08:28;12.80;;;5.55;;
34521;SDS011;25561;48.888;8.736;2022-08-19T12:11:30;9.70;;;5.50;;
34521;SDS011;25561;48.888;8.736;2022-08-19T12:14:35;8.25;;;5.28;;
34521;SDS011;25561;48.888;8.736;2022-08-19T12:17:37;8.10;;;4.90;;
34521;SDS011;25561;48.888;8.736;2022-08-19T12:20:40;7.97;;;5.07;;
34521;SDS011;25561;48.888;8.736;2022-08-19T12:23:43;6.55;;;5.07;;
34521;SDS011;25561;48.888;8.736;2022-08-19T12:26:46;8.45;;;5.68;;
34521;SDS011;25561;48.888;8.736;2022-08-19T12:29:53;6.93;;;5.07;;
34521;SDS011;25561;48.888;8.736;2022-08-19T12:32:55;8.20;;;5.57;;
34521;SDS011;25561;48.888;8.736;2022-08-19T12:36:00;9.35;;;5.20;;
34521;SDS011;25561;48.888;8.736;2022-08-19T12:39:04;8.82;;;5.22;;
34521;SDS011;25561;48.888;8.736;2022-08-19T12:42:11;8.48;;;4.97;;
34521;SDS011;25561;48.888;8.736;2022-08-19T12:45:14;6.45;;;4.82;;
34521;SDS011;25561;48.888;8.736;2022-08-19T12:48:16;9.27;;;5.22;;
34521;SDS011;25561;48.888;8.736;2022-08-19T12:51:35;10.32;;;5.20;;
34521;SDS011;25561;48.888;8.736;2022-08-19T12:54:37;8.85;;;6.43;;
34521;SDS011;25561;48.888;8.736;2022-08-19T12:57:38;9.00;;;6.05;;
34521;SDS011;25561;48.888;8.736;2022-08-19T13:00:41;13.43;;;7.82;;
34521;SDS011;25561;48.888;8.736;2022-08-19T13:03:44;10.50;;;6.53;;
34521;SDS011;25561;48.888;8.736;2022-08-19T13:06:47;11.88;;;6.30;;
34521;SDS011;25561;48.888;8.736;2022-08-19T13:09:50;10.80;;;6.97;;
34521;SDS011;25561;48.888;8.736;2022-08-19T13:12:53;8.43;;;6.68;;
34521;SDS011;25561;48.888;8.736;2022-08-19T13:15:59;10.90;;;7.10;;
34521;SDS011;25561;48.888;8.736;2022-08-19T13:19:03;7.25;;;6.40;;
34521;SDS011;25561;48.888;8.736;2022-08-19T13:22:06;7.68;;;6.55;;
34521;SDS011;25561;48.888;8.736;2022-08-19T13:25:15;11.20;;;6.85;;
34521;SDS011;25561;48.888;8.736;2022-08-19T13:28:19;10.48;;;5.82;;
34521;SDS011;25561;48.888;8.736;2022-08-19T13:31:31;7.93;;;6.15;;
34521;SDS011;25561;48.888;8.736;2022-08-19T13:34:54;12.38;;;6.38;;
34521;SDS011;25561;48.888;8.736;2022-08-19T13:37:56;10.65;;;6.57;;
34521;SDS011;25561;48.888;8.736;2022-08-19T13:41:03;6.78;;;5.68;;
34521;SDS011;25561;48.888;8.736;2022-08-19T13:44:14;8.38;;;6.85;;
34521;SDS011;25561;48.888;8.736;2022-08-19T13:47:16;10.43;;;6.30;;
34521;SDS011;25561;48.888;8.736;2022-08-19T13:50:19;15.07;;;5.50;;
34521;SDS011;25561;48.888;8.736;2022-08-19T13:56:24;8.05;;;6.22;;
34521;SDS011;25561;48.888;8.736;2022-08-19T13:59:26;8.20;;;5.95;;
34521;SDS011;25561;48.888;8.736;2022-08-19T14:02:29;6.38;;;5.78;;
34521;SDS011;25561;48.888;8.736;2022-08-19T14:05:31;7.78;;;6.15;;
34521;SDS011;25561;48.888;8.736;2022-08-19T14:08:34;9.18;;;6.75;;
34521;SDS011;25561;48.888;8.736;2022-08-19T14:11:36;9.18;;;6.85;;
34521;SDS011;25561;48.888;8.736;2022-08-19T14:14:38;10.05;;;6.35;;
34521;SDS011;25561;48.888;8.736;2022-08-19T14:17:41;8.10;;;6.38;;
34521;SDS011;25561;48.888;8.736;2022-08-19T14:20:45;9.75;;;6.80;;
34521;SDS011;25561;48.888;8.736;2022-08-19T14:23:46;11.20;;;5.68;;
34521;SDS011;25561;48.888;8.736;2022-08-19T14:26:48;8.75;;;6.45;;
34521;SDS011;25561;48.888;8.736;2022-08-19T14:29:51;10.70;;;6.72;;
34521;SDS011;25561;48.888;8.736;2022-08-19T14:32:53;7.95;;;6.40;;
34521;SDS011;25561;48.888;8.736;2022-08-19T14:35:56;6.65;;;5.90;;
34521;SDS011;25561;48.888;8.736;2022-08-19T14:39:00;7.63;;;6.03;;
34521;SDS011;25561;48.888;8.736;2022-08-19T14:42:05;9.13;;;5.97;;
34521;SDS011;25561;48.888;8.736;2022-08-19T14:45:12;7.15;;;5.90;;
34521;SDS011;25561;48.888;8.736;2022-08-19T14:48:13;6.97;;;5.82;;
34521;SDS011;25561;48.888;8.736;2022-08-19T14:51:21;8.25;;;6.20;;
34521;SDS011;25561;48.888;8.736;2022-08-19T14:54:24;7.30;;;6.18;;
34521;SDS011;25561;48.888;8.736;2022-08-19T14:57:30;8.90;;;6.15;;
34521;SDS011;25561;48.888;8.736;2022-08-19T15:00:32;6.63;;;5.88;;
34521;SDS011;25561;48.888;8.736;2022-08-19T15:06:42;7.00;;;5.32;;
34521;SDS011;25561;48.888;8.736;2022-08-19T15:09:44;6.05;;;5.18;;
34521;SDS011;25561;48.888;8.736;2022-08-19T15:12:45;7.18;;;5.43;;
34521;SDS011;25561;48.888;8.736;2022-08-19T15:15:52;5.97;;;4.75;;
34521;SDS011;25561;48.888;8.736;2022-08-19T15:18:55;6.43;;;5.35;;
34521;SDS011;25561;48.888;8.736;2022-08-19T15:21:58;10.53;;;4.93;;
34521;SDS011;25561;48.888;8.736;2022-08-19T15:25:00;9.38;;;4.75;;
34521;SDS011;25561;48.888;8.736;2022-08-19T15:28:05;7.63;;;4.65;;
34521;SDS011;25561;48.888;8.736;2022-08-19T15:31:10;7.10;;;4.80;;
34521;SDS011;25561;48.888;8.736;2022-08-19T15:34:28;11.85;;;5.32;;
34521;SDS011;25561;48.888;8.736;2022-08-19T15:37:32;5.10;;;4.57;;
34521;SDS011;25561;48.888;8.736;2022-08-19T15:40:37;6.78;;;4.70;;
34521;SDS011;25561;48.888;8.736;2022-08-19T15:43:40;5.15;;;4.40;;
34521;SDS011;25561;48.888;8.736;2022-08-19T15:46:43;5.65;;;4.53;;
34521;SDS011;25561;48.888;8.736;2022-08-19T15:49:47;5.20;;;4.43;;
34521;SDS011;25561;48.888;8.736;2022-08-19T15:52:51;7.97;;;4.70;;
34521;SDS011;25561;48.888;8.736;2022-08-19T15:55:55;8.20;;;4.78;;
34521;SDS011;25561;48.888;8.736;2022-08-19T15:58:56;7.30;;;4.47;;
